Time;durP1;ratioP1;P1;durP2;ratioP2;P2;SDS_P1;SDS_P2;PMS_P1;PMS_P2;Temp;Humidity;BMP_temperature;BMP_pressure;BME280_temperature;BME280_humidity;BME280_pressure;Samples;Min_cycle;Max_cycle;Signal;HPM_P1;HPM_P2
2021/04/13 00:03:18;;;;;;;1999.90;999.90;;;;;;;4.56;64.91;102277.09;15537192;28;20038;-62
2021/04/13 00:10:53;;;;;;;1999.90;999.90;;;;;;;4.52;65.45;102267.66;15555900;28;20077;-63
2021/04/13 00:18:29;;;;;;;1999.90;999.90;;;;;;;4.30;65.79;102266.78;15539274;28;20038;-64
2021/04/13 00:26:03;;;;;;;1999.90;999.90;;;;;;;4.23;65.90;102268.88;15521997;28;20102;-63
2021/04/13 00:33:36;;;;;;;1999.90;999.90;;;;;;;4.20;65.61;102269.38;15538930;28;20444;-65
2021/04/13 00:41:12;;;;;;;1999.90;999.90;;;;;;;4.09;65.56;102273.91;15555613;28;20050;-63
2021/04/13 00:48:44;;;;;;;1999.90;999.90;;;;;;;4.02;65.92;102268.56;15538416;28;20046;-63
2021/04/13 00:56:18;;;;;;;1999.90;999.90;;;;;;;3.85;66.19;102262.19;15538491;28;20049;-63
2021/04/13 01:03:54;;;;;;;1999.90;999.90;;;;;;;3.90;66.21;102269.72;15556237;28;20050;-64
2021/04/13 01:11:28;;;;;;;1999.90;999.90;;;;;;;3.87;65.61;102264.72;15537750;28;20116;-63
2021/04/13 01:19:11;;;;;;;1999.90;999.90;;;;;;;3.70;66.52;102273.81;15554461;28;20064;-63
2021/04/13 01:26:46;;;;;;;1999.90;999.90;;;;;;;3.52;67.00;102265.75;15536043;28;20042;-63
2021/04/13 01:34:23;;;;;;;1999.90;999.90;;;;;;;3.46;67.36;102266.75;15520219;28;20046;-63
2021/04/13 01:41:58;;;;;;;1999.90;999.90;;;;;;;3.35;67.30;102270.41;15536075;28;20133;-63
2021/04/13 01:49:36;;;;;;;1999.90;999.90;;;;;;;3.29;67.57;102272.22;15520682;28;20069;-63
2021/04/13 01:57:18;;;;;;;1999.90;999.90;;;;;;;3.31;67.32;102267.28;15535736;28;20042;-62
2021/04/13 02:04:54;;;;;;;1999.90;999.90;;;;;;;3.18;67.71;102264.84;15553351;28;20116;-63
2021/04/13 02:12:29;;;;;;;1999.90;999.90;;;;;;;3.02;67.93;102260.94;15556204;28;20068;-61
2021/04/13 02:20:04;;;;;;;1999.90;999.90;;;;;;;2.89;68.11;102269.47;15542024;28;20494;-62
2021/04/13 02:27:40;;;;;;;1999.90;999.90;;;;;;;2.93;68.41;102275.38;15563677;28;20096;-63
2021/04/13 02:35:19;;;;;;;1999.90;999.90;;;;;;;2.93;67.94;102283.66;15562913;28;20053;-63
2021/04/13 02:42:56;;;;;;;1999.90;999.90;;;;;;;2.78;68.22;102284.97;15562340;28;20453;-63
2021/04/13 02:50:31;;;;;;;1999.90;999.90;;;;;;;2.95;67.95;102295.25;15545247;28;20050;-63
2021/04/13 02:58:05;;;;;;;1999.90;999.90;;;;;;;2.71;68.36;102295.31;15561442;28;20042;-63
2021/04/13 03:05:40;;;;;;;1999.90;999.90;;;;;;;2.77;68.56;102283.31;15561495;28;20519;-64
2021/04/13 03:13:15;;;;;;;1999.90;999.90;;;;;;;2.77;67.94;102291.56;15544072;28;20057;-62
2021/04/13 03:20:52;;;;;;;1999.90;999.90;;;;;;;2.70;68.03;102295.53;15544131;28;20038;-63
2021/04/13 03:28:28;;;;;;;1999.90;999.90;;;;;;;2.71;68.54;102295.31;15561252;28;20049;-63
2021/04/13 03:36:06;;;;;;;1999.90;999.90;;;;;;;2.77;68.10;102294.31;15543472;28;20068;-63
2021/04/13 03:43:38;;;;;;;1999.90;999.90;;;;;;;2.64;67.96;102291.00;15558792;28;20049;-63
2021/04/13 03:51:15;;;;;;;1999.90;999.90;;;;;;;2.66;68.42;102295.19;15540557;28;20090;-63
2021/04/13 03:58:50;;;;;;;1999.90;999.90;;;;;;;2.46;69.25;102305.75;15540546;28;20050;-64
2021/04/13 04:06:41;;;;;;;1999.90;999.90;;;;;;;2.55;69.57;102302.38;15524622;28;20053;-62
2021/04/13 04:14:16;;;;;;;1999.90;999.90;;;;;;;2.53;69.22;102300.97;15557309;28;20134;-62
2021/04/13 04:21:58;;;;;;;1999.90;999.90;;;;;;;2.49;69.11;102297.00;15522929;28;20058;-62
2021/04/13 04:29:40;;;;;;;1999.90;999.90;;;;;;;2.51;69.63;102303.97;15537814;28;20521;-61
2021/04/13 04:37:33;;;;;;;1999.90;999.90;;;;;;;2.59;69.31;102314.59;15537914;28;20545;-63
2021/04/13 04:45:16;;;;;;;1999.90;999.90;;;;;;;2.65;69.23;102325.75;15537056;28;20049;-61
2021/04/13 04:52:48;;;;;;;;;;;;;;;2.64;69.26;102322.16;15538003;28;20128;-62
2021/04/13 05:00:21;;;;;;;1999.90;999.90;;;;;;;2.78;69.00;102334.59;15554671;28;19928;-63
2021/04/13 05:07:53;;;;;;;1999.90;999.90;;;;;;;3.02;68.89;102338.19;15536509;28;20081;-63
2021/04/13 05:15:25;;;;;;;1999.90;999.90;;;;;;;3.28;68.45;102344.22;15520445;28;20120;-62
2021/04/13 05:22:57;;;;;;;1999.90;999.90;;;;;;;3.89;67.79;102340.72;15554427;28;20229;-63
2021/04/13 05:30:29;;;;;;;1999.90;999.90;;;;;;;4.21;66.75;102353.97;15554596;28;20041;-63
2021/04/13 05:38:06;;;;;;;1999.90;999.90;;;;;;;5.19;64.90;102357.88;15554533;28;20491;-63
2021/04/13 05:45:39;;;;;;;1999.90;999.90;;;;;;;5.74;63.10;102359.66;15520244;28;20502;-64
2021/04/13 05:53:13;;;;;;;1999.90;999.90;;;;;;;6.34;61.86;102359.41;15553077;28;20053;-63
2021/04/13 06:00:49;;;;;;;1999.90;999.90;;;;;;;6.56;62.22;102355.69;15547266;28;20074;-63
2021/04/13 06:08:21;;;;;;;1999.90;999.90;;;;;;;6.60;61.44;102365.19;15547688;28;20411;-64
2021/04/13 06:15:54;;;;;;;1999.90;999.90;;;;;;;7.41;59.77;102370.34;15530612;28;20046;-64
2021/04/13 06:23:27;;;;;;;1999.90;999.90;;;;;;;7.36;58.79;102370.31;15563387;28;20157;-63
2021/04/13 06:30:59;;;;;;;1999.90;999.90;;;;;;;8.71;56.05;102383.91;15545643;28;20042;-65
2021/04/13 06:38:31;;;;;;;1999.90;999.90;;;;;;;8.06;56.46;102391.09;15544690;28;20042;-62
2021/04/13 06:46:11;;;;;;;1999.90;999.90;;;;;;;9.02;54.99;102398.59;15561719;28;20056;-64
2021/04/13 06:53:59;;;;;;;1999.90;999.90;;;;;;;9.78;52.89;102401.09;15562185;28;20419;-65
2021/04/13 07:01:37;;;;;;;1999.90;999.90;;;;;;;9.71;53.95;102408.13;15527747;28;20050;-64
2021/04/13 07:09:17;;;;;;;1999.90;999.90;;;;;;;10.94;50.80;102415.34;15542724;28;20498;-65
2021/04/13 07:16:55;;;;;;;1999.90;999.90;;;;;;;11.80;48.78;102407.94;15561742;28;20054;-64
2021/04/13 07:24:31;;;;;;;1999.90;999.90;;;;;;;11.19;48.78;102402.22;15542430;28;20053;-64
2021/04/13 07:32:05;;;;;;;1999.90;999.90;;;;;;;11.34;48.69;102392.81;15526871;28;20530;-65
2021/04/13 07:39:39;;;;;;;1999.90;999.90;;;;;;;12.42;47.74;102405.88;15526128;28;20038;-64
2021/04/13 07:47:19;;;;;;;1999.90;999.90;;;;;;;13.08;47.01;102397.44;15542142;28;20073;-63
2021/04/13 07:54:57;;;;;;;1999.90;999.90;;;;;;;12.84;47.03;102400.41;15541054;28;20506;-64
2021/04/13 08:02:29;;;;;;;1999.90;999.90;;;;;;;12.00;47.07;102398.41;15558306;28;20042;-64
2021/04/13 08:10:32;;;;;;;1999.90;999.90;;;;;;;11.64;48.15;102397.19;15558645;28;20490;-63
2021/04/13 08:18:10;;;;;;;1999.90;999.90;;;;;;;11.09;49.67;102399.53;15556004;28;20092;-64
2021/04/13 08:25:46;;;;;;;1999.90;999.90;;;;;;;11.18;50.40;102408.94;15537563;28;20049;-63
2021/04/13 08:33:33;;;;;;;1999.90;999.90;;;;;;;11.13;49.15;102409.81;15537098;28;20101;-62
2021/04/13 08:41:18;;;;;;;1999.90;999.90;;;;;;;11.39;47.08;102409.53;15555321;28;20049;-64
2021/04/13 08:49:00;;;;;;;1999.90;999.90;;;;;;;11.21;48.01;102419.53;15554469;28;20069;-64
2021/04/13 08:56:33;;;;;;;1999.90;999.90;;;;;;;11.06;48.96;102406.56;15520501;28;20073;-63
2021/04/13 09:04:08;;;;;;;1999.90;999.90;;;;;;;10.77;50.10;102411.31;15554392;28;20121;-63
2021/04/13 09:11:48;;;;;;;1999.90;999.90;;;;;;;11.71;48.64;102409.69;15536416;28;20470;-63
2021/04/13 09:19:26;;;;;;;1999.90;999.90;;;;;;;12.53;45.18;102408.50;15536512;28;20038;-63
2021/04/13 09:27:17;;;;;;;1999.90;999.90;;;;;;;12.05;45.24;102406.72;15553844;28;20049;-64
2021/04/13 09:35:15;;;;;;;1999.90;999.90;;;;;;;11.66;46.02;102404.16;15566348;28;20533;-65
2021/04/13 09:43:16;;;;;;;1999.90;999.90;;;;;;;11.47;46.46;102397.72;15531678;28;20495;-64
2021/04/13 09:51:00;;;;;;;1999.90;999.90;;;;;;;13.92;42.72;102409.19;15547674;28;20457;-63
2021/04/13 09:59:05;;;;;;;1999.90;999.90;;;;;;;12.38;44.55;102396.41;15546393;28;20078;-64
2021/04/13 10:06:37;;;;;;;;;;;;;;;12.08;44.99;102386.53;15565383;28;20073;-64
2021/04/13 10:14:41;;;;;;;1999.90;999.90;;;;;;;14.65;40.52;102390.31;15564154;28;20016;-65
2021/04/13 10:22:40;;;;;;;1999.90;999.90;;;;;;;12.98;42.27;102392.84;15546921;28;20034;-63
2021/04/13 10:30:33;;;;;;;1999.90;999.90;;;;;;;12.58;45.06;102388.81;15544706;28;20133;-61
2021/04/13 10:38:42;;;;;;;1999.90;999.90;;;;;;;12.16;43.63;102398.16;15545785;28;20048;-62
2021/04/13 10:46:27;;;;;;;1999.90;999.90;;;;;;;14.06;40.92;102390.31;15542918;28;20390;-62
2021/04/13 10:54:22;;;;;;;1999.90;999.90;;;;;;;13.45;42.94;102396.47;15543913;28;20069;-64
2021/04/13 11:02:02;;;;;;;1999.90;999.90;;;;;;;15.84;39.67;102382.75;15561027;28;20058;-64
2021/04/13 11:09:42;;;;;;;1999.90;999.90;;;;;;;13.66;39.40;102380.03;15560419;28;20053;-64
2021/04/13 11:27:09;;;;;;;1999.90;999.90;;;;;;;17.17;32.86;102372.66;15558864;28;20045;-64
2021/04/13 11:35:08;;;;;;;1999.90;999.90;;;;;;;13.73;38.82;102370.03;15557989;28;20054;-64
2021/04/13 11:42:41;;;;;;;1999.90;999.90;;;;;;;12.99;41.06;102378.53;15540674;28;20052;-64
2021/04/13 11:50:22;;;;;;;1999.90;999.90;;;;;;;12.92;41.15;102371.66;15524047;28;20037;-64
2021/04/13 11:58:09;;;;;;;1999.90;999.90;;;;;;;13.98;39.03;102371.44;15540260;28;20468;-64
2021/04/13 12:05:45;;;;;;;1999.90;999.90;;;;;;;14.38;37.90;102354.72;15524319;28;20049;-64
2021/04/13 12:13:40;;;;;;;1999.90;999.90;;;;;;;17.65;33.01;102348.84;15540237;28;20052;-64
2021/04/13 12:21:44;;;;;;;1999.90;999.90;;;;;;;15.62;34.88;102335.03;15557291;28;20046;-63
2021/04/13 12:29:31;;;;;;;1999.90;999.90;;;;;;;13.57;38.96;102344.31;15444162;28;20077;-65
2021/04/13 12:37:03;;;;;;;1999.90;999.90;;;;;;;12.78;39.74;102354.00;15523656;28;20074;-64
2021/04/13 12:44:35;;;;;;;1999.90;999.90;;;;;;;13.64;39.25;102346.66;15556693;28;20042;-63
2021/04/13 12:52:18;;;;;;;1999.90;999.90;;;;;;;13.65;39.85;102344.69;15521938;28;20240;-63
2021/04/13 12:59:52;;;;;;;1999.90;999.90;;;;;;;13.57;39.03;102343.47;15555320;28;20050;-63
2021/04/13 13:07:25;;;;;;;;;;;;;;;20.20;30.41;102336.41;15537047;28;20038;-62
2021/04/13 13:15:02;;;;;;;1999.90;999.90;;;;;;;21.29;25.77;102337.00;15554910;28;20371;-64
2021/04/13 13:22:34;;;;;;;1999.90;999.90;;;;;;;15.70;33.34;102322.94;15593315;28;20266;-65
2021/04/13 13:30:10;;;;;;;1999.90;999.90;;;;;;;17.51;31.13;102313.25;15615404;28;20133;-62
2021/04/13 13:37:47;;;;;;;1999.90;999.90;;;;;;;22.63;23.19;102312.75;15615725;28;20132;-64
2021/04/13 13:45:27;;;;;;;1999.90;999.90;;;;;;;21.10;25.64;102305.66;15598578;28;20050;-64
2021/04/13 13:52:59;;;;;;;1999.90;999.90;;;;;;;16.21;31.92;102301.59;15551733;28;20119;-63
2021/04/13 14:00:51;;;;;;;1999.90;999.90;;;;;;;14.87;35.48;102293.91;15538850;28;20069;-63
2021/04/13 14:08:44;;;;;;;1999.90;999.90;;;;;;;14.49;35.86;102276.72;15552880;28;20044;-62
2021/04/13 14:16:27;;;;;;;1999.90;999.90;;;;;;;13.39;36.01;102274.31;15537875;28;20058;-64
2021/04/13 14:24:12;;;;;;;1999.90;999.90;;;;;;;13.09;37.60;102285.00;15563231;28;20050;-59
2021/04/13 14:31:48;;;;;;;1999.90;999.90;;;;;;;12.90;38.25;102279.50;15608064;28;20128;-63
2021/04/13 14:39:21;;;;;;;1999.90;999.90;;;;;;;13.96;38.04;102269.03;15623789;28;20046;-64
2021/04/13 14:46:54;;;;;;;1999.90;999.90;;;;;;;13.17;39.05;102261.03;15606247;28;20120;-65
2021/04/13 14:54:26;;;;;;;1999.90;999.90;;;;;;;12.75;38.41;102251.00;15623150;28;20537;-64
2021/04/13 15:01:59;;;;;;;1999.90;999.90;;;;;;;13.18;39.45;102243.06;15622858;28;20041;-64
2021/04/13 15:09:33;;;;;;;1999.90;999.90;;;;;;;12.32;38.71;102246.47;15622330;28;20067;-61
2021/04/13 15:17:09;;;;;;;1999.90;999.90;;;;;;;13.08;38.09;102235.72;15546386;28;20053;-63
2021/04/13 15:24:41;;;;;;;1999.90;999.90;;;;;;;12.81;38.75;102242.16;15539802;28;20038;-63
2021/04/13 15:32:14;;;;;;;1999.90;999.90;;;;;;;12.85;38.38;102236.78;15538976;28;20048;-64
2021/04/13 15:39:45;;;;;;;1999.90;999.90;;;;;;;12.45;39.52;102238.41;15565070;28;20529;-65
2021/04/13 15:47:23;;;;;;;1999.90;999.90;;;;;;;12.42;39.80;102228.66;15539990;28;20057;-62
2021/04/13 15:54:55;;;;;;;1999.90;999.90;;;;;;;12.32;40.61;102221.28;15556934;28;20466;-64
2021/04/13 16:02:27;;;;;;;1999.90;999.90;;;;;;;11.95;41.11;102227.81;15540382;28;20141;-61
2021/04/13 16:09:59;;;;;;;1999.90;999.90;;;;;;;12.04;40.78;102219.56;15559361;28;20069;-62
2021/04/13 16:17:32;;;;;;;1999.90;999.90;;;;;;;11.89;38.42;102229.06;15541636;28;20164;-62
2021/04/13 16:25:05;;;;;;;1999.90;999.90;;;;;;;11.92;40.59;102241.59;15544677;28;20395;-60
2021/04/13 16:32:40;;;;;;;1999.90;999.90;;;;;;;11.18;46.32;102246.88;15558298;28;20509;-61
2021/04/13 16:40:17;;;;;;;1999.90;999.90;;;;;;;11.37;46.16;102239.34;15537888;28;20514;-62
2021/04/13 16:47:56;;;;;;;1999.90;999.90;;;;;;;11.52;44.91;102238.28;15537417;28;20068;-61
2021/04/13 16:55:29;;;;;;;1999.90;999.90;;;;;;;10.81;45.45;102222.50;15555295;28;20160;-59
2021/04/13 17:03:15;;;;;;;1999.90;999.90;;;;;;;11.07;44.00;102217.41;15538829;28;20061;-59
2021/04/13 17:10:52;;;;;;;1999.90;999.90;;;;;;;10.91;44.29;102220.41;15538574;28;20048;-63
2021/04/13 17:18:26;;;;;;;1999.90;999.90;;;;;;;10.99;45.00;102230.91;15537132;28;20052;-60
2021/04/13 17:25:57;;;;;;;1999.90;999.90;;;;;;;11.10;44.21;102233.56;15535704;28;20103;-61
2021/04/13 17:33:30;;;;;;;1999.90;999.90;;;;;;;11.04;42.31;102238.38;15536807;28;20242;-59
2021/04/13 17:41:09;;;;;;;1999.90;999.90;;;;;;;10.85;42.58;102249.53;15553804;28;20328;-57
2021/04/13 17:48:43;;;;;;;1999.90;999.90;;;;;;;10.81;42.70;102256.00;15520911;28;20041;-59
2021/04/13 17:56:21;;;;;;;1999.90;999.90;;;;;;;10.73;43.79;102262.22;15564710;28;20042;-62
2021/04/13 18:03:58;;;;;;;1999.90;999.90;;;;;;;10.54;45.21;102260.22;15564278;28;20511;-61
2021/04/13 18:11:35;;;;;;;1999.90;999.90;;;;;;;10.27;46.27;102269.13;15546210;28;20038;-62
2021/04/13 18:19:12;;;;;;;1999.90;999.90;;;;;;;9.98;47.71;102271.03;15564236;28;20068;-64
2021/04/13 18:26:45;;;;;;;1999.90;999.90;;;;;;;9.83;47.91;102274.78;15563770;28;20660;-59
2021/04/13 18:34:27;;;;;;;1999.90;999.90;;;;;;;9.72;48.29;102268.44;15564193;28;20045;-62
2021/04/13 18:42:02;;;;;;;1999.90;999.90;;;;;;;9.68;49.01;102297.19;15529791;28;20422;-61
2021/04/13 18:49:39;;;;;;;1999.90;999.90;;;;;;;9.34;51.69;102281.22;15545340;28;20099;-60
2021/04/13 18:57:15;;;;;;;1999.90;999.90;;;;;;;9.73;53.77;102289.63;15562370;28;20053;-62
2021/04/13 19:04:47;;;;;;;1999.90;999.90;;;;;;;9.67;52.08;102293.56;15561609;28;20054;-62
2021/04/13 19:12:22;;;;;;;1999.90;999.90;;;;;;;9.34;51.69;102288.75;15561304;28;20533;-62
2021/04/13 19:20:01;;;;;;;1999.90;999.90;;;;;;;8.95;52.59;102297.81;15543827;28;20409;-60
2021/04/13 19:27:40;;;;;;;1999.90;999.90;;;;;;;8.99;52.68;102307.28;15560671;28;20455;-61
2021/04/13 19:35:17;;;;;;;1999.90;999.90;;;;;;;8.87;53.08;102304.00;15543673;28;20046;-63
2021/04/13 19:42:57;;;;;;;1999.90;999.90;;;;;;;9.00;52.93;102314.53;15560153;28;20516;-60
2021/04/13 19:50:34;;;;;;;1999.90;999.90;;;;;;;8.86;54.45;102324.59;15543016;28;20174;-62
2021/04/13 19:58:12;;;;;;;1999.90;999.90;;;;;;;9.00;53.40;102322.03;15541730;28;20061;-62
2021/04/13 20:05:45;;;;;;;1999.90;999.90;;;;;;;9.04;53.42;102332.31;15559004;28;20423;-61
2021/04/13 20:13:17;;;;;;;;;;;;;;;8.57;54.41;102341.91;15557478;28;20034;-63
2021/04/13 20:20:57;;;;;;;1999.90;999.90;;;;;;;8.75;53.96;102340.47;15558496;28;19933;-61
2021/04/13 20:28:35;;;;;;;1999.90;999.90;;;;;;;8.99;53.74;102335.13;15557566;28;20046;-61
2021/04/13 20:44:03;;;;;;;1999.90;999.90;;;;;;;8.71;53.93;102327.41;15540286;28;20525;-61
2021/04/13 20:51:41;;;;;;;1999.90;999.90;;;;;;;8.42;55.57;102311.31;15556911;28;20072;-63
2021/04/13 20:59:16;;;;;;;1999.90;999.90;;;;;;;8.42;55.54;102321.59;15539777;28;20073;-60
2021/04/13 21:06:56;;;;;;;1999.90;999.90;;;;;;;8.18;55.74;102318.53;15536716;28;20137;-61
2021/04/13 21:14:29;;;;;;;1999.90;999.90;;;;;;;8.08;55.77;102314.63;15536456;28;20125;-62
2021/04/13 21:22:13;;;;;;;1999.90;999.90;;;;;;;8.00;56.09;102312.41;15536466;28;20049;-61
2021/04/13 21:29:45;;;;;;;1999.90;999.90;;;;;;;7.64;57.28;102308.75;15546547;28;20104;-62
2021/04/13 21:37:21;;;;;;;1999.90;999.90;;;;;;;7.58;57.23;102311.78;15548669;28;20121;-62
2021/04/13 21:45:01;;;;;;;1999.90;999.90;;;;;;;7.32;57.77;102313.66;15566270;28;20072;-62
2021/04/13 21:52:42;;;;;;;1999.90;999.90;;;;;;;6.86;58.64;102305.94;15548770;28;20117;-63
2021/04/13 22:00:28;;;;;;;1999.90;999.90;;;;;;;7.00;57.67;102305.47;15549108;28;20038;-61
2021/04/13 22:08:02;;;;;;;1999.90;999.90;;;;;;;6.92;57.72;102312.38;15534096;28;20077;-60
2021/04/13 22:15:33;;;;;;;1999.90;999.90;;;;;;;6.85;57.98;102301.50;15565314;28;20053;-61
2021/04/13 22:23:10;;;;;;;1999.90;999.90;;;;;;;6.74;57.37;102308.09;15564300;28;20072;-62
2021/04/13 22:30:50;;;;;;;1999.90;999.90;;;;;;;6.54;58.25;102303.25;15563553;28;20133;-62
2021/04/13 22:38:29;;;;;;;1999.90;999.90;;;;;;;6.59;57.79;102310.81;15544405;28;20499;-63
2021/04/13 22:46:01;;;;;;;1999.90;999.90;;;;;;;6.38;58.19;102295.13;15562549;28;20042;-61
2021/04/13 22:53:37;;;;;;;1999.90;999.90;;;;;;;6.30;58.23;102305.59;15544645;28;20038;-61
2021/04/13 23:01:09;;;;;;;1999.90;999.90;;;;;;;6.19;58.79;102308.56;15562461;28;20085;-61
2021/04/13 23:08:42;;;;;;;1999.90;999.90;;;;;;;6.05;59.52;102309.03;15529623;28;20038;-59
2021/04/13 23:16:14;;;;;;;1999.90;999.90;;;;;;;6.11;59.26;102315.44;15544981;28;20046;-60
2021/04/13 23:23:46;;;;;;;1999.90;999.90;;;;;;;6.06;58.75;102307.91;15542872;28;20403;-60
2021/04/13 23:31:17;;;;;;;1999.90;999.90;;;;;;;6.00;59.48;102308.13;15541108;28;20092;-58
2021/04/13 23:38:50;;;;;;;1999.90;999.90;;;;;;;5.93;59.19;102297.25;15560203;28;20095;-61
2021/04/13 23:46:21;;;;;;;1999.90;999.90;;;;;;;5.77;59.81;102293.50;15541689;28;20518;-60
2021/04/13 23:53:53;;;;;;;1999.90;999.90;;;;;;;5.74;59.58;102293.19;15558646;28;20068;-61
